createdAt,value
2017-12-04T00:01:18.890Z,1.70
2017-12-04T00:03:46.320Z,1.80
2017-12-04T00:06:13.765Z,1.80
2017-12-04T00:08:41.964Z,1.80
2017-12-04T00:11:09.415Z,1.70
2017-12-04T00:13:36.855Z,1.70
2017-12-04T00:16:05.072Z,1.70
2017-12-04T00:18:32.511Z,1.70
2017-12-04T00:21:06.464Z,1.70
2017-12-04T00:23:33.904Z,1.80
2017-12-04T00:26:01.359Z,1.80
2017-12-04T00:28:28.803Z,1.90
2017-12-04T00:30:56.229Z,1.90
2017-12-04T00:33:23.671Z,1.90
2017-12-04T00:35:51.104Z,1.90
2017-12-04T00:38:18.543Z,1.90
2017-12-04T00:40:45.979Z,1.80
2017-12-04T00:43:13.426Z,1.80
2017-12-04T00:45:42.433Z,1.90
2017-12-04T00:48:09.876Z,1.90
2017-12-04T00:50:37.315Z,1.90
2017-12-04T00:53:05.638Z,1.80
2017-12-04T00:55:33.056Z,1.80
2017-12-04T00:58:01.272Z,1.90
2017-12-04T01:00:28.723Z,1.90
2017-12-04T01:02:56.183Z,1.90
2017-12-04T01:05:23.623Z,1.90
2017-12-04T01:07:51.052Z,1.90
2017-12-04T01:10:19.299Z,2.00
2017-12-04T01:12:46.705Z,1.90
2017-12-04T01:15:14.141Z,2.00
2017-12-04T01:17:42.336Z,2.00
2017-12-04T01:20:09.780Z,1.90
2017-12-04T01:22:37.225Z,1.90
2017-12-04T01:25:05.435Z,2.00
2017-12-04T01:27:32.871Z,2.00
2017-12-04T01:30:00.315Z,2.00
2017-12-04T01:32:28.507Z,2.00
2017-12-04T01:34:55.946Z,2.00
2017-12-04T01:37:24.196Z,2.00
2017-12-04T01:39:51.635Z,2.00
2017-12-04T01:42:19.083Z,2.00
2017-12-04T01:44:46.521Z,2.00
2017-12-04T01:47:13.956Z,2.00
2017-12-04T01:49:42.167Z,2.10
2017-12-04T01:52:09.600Z,2.00
2017-12-04T01:54:38.069Z,2.00
2017-12-04T01:57:06.285Z,1.90
2017-12-04T01:59:33.719Z,1.90
2017-12-04T02:02:01.156Z,1.90
2017-12-04T02:04:29.360Z,1.90
2017-12-04T02:06:56.804Z,1.80
2017-12-04T02:09:24.239Z,1.80
2017-12-04T02:11:52.448Z,1.80
2017-12-04T02:14:19.892Z,1.80
2017-12-04T02:16:47.348Z,1.80
2017-12-04T02:19:15.562Z,1.90
2017-12-04T02:21:42.972Z,1.90
2017-12-04T02:24:11.184Z,2.00
2017-12-04T02:26:38.625Z,2.00
2017-12-04T02:29:11.756Z,2.10
2017-12-04T02:31:39.191Z,2.10
2017-12-04T02:34:06.639Z,2.10
2017-12-04T02:36:34.088Z,2.10
2017-12-04T02:39:01.518Z,2.10
2017-12-04T02:41:40.297Z,2.10
2017-12-04T02:44:07.745Z,2.10
2017-12-04T02:46:35.200Z,2.10
2017-12-04T02:49:02.640Z,2.00
2017-12-04T02:51:30.063Z,2.00
2017-12-04T02:53:58.270Z,2.00
2017-12-04T02:56:25.717Z,1.90
2017-12-04T02:58:53.149Z,1.90
2017-12-04T03:01:21.381Z,1.90
2017-12-04T03:03:48.823Z,1.90
2017-12-04T03:06:16.252Z,1.90
2017-12-04T03:08:44.468Z,2.00
2017-12-04T03:11:11.908Z,1.90
2017-12-04T03:13:39.335Z,2.00
2017-12-04T03:16:07.550Z,1.90
2017-12-04T03:18:35.002Z,1.90
2017-12-04T03:21:02.437Z,1.90
2017-12-04T03:23:29.898Z,2.00
2017-12-04T03:25:57.340Z,2.00
2017-12-04T03:28:25.530Z,2.00
2017-12-04T03:30:52.979Z,2.00
2017-12-04T03:33:20.408Z,2.00
2017-12-04T03:35:47.854Z,2.00
2017-12-04T03:38:15.283Z,2.00
2017-12-04T03:40:42.738Z,1.90
2017-12-04T03:43:10.184Z,1.90
2017-12-04T03:45:37.625Z,1.90
2017-12-04T03:48:05.056Z,1.90
2017-12-04T03:50:32.510Z,1.90
2017-12-04T03:52:59.988Z,2.00
2017-12-04T03:55:28.230Z,1.90
2017-12-04T03:57:55.669Z,1.90
2017-12-04T04:00:23.096Z,1.90
2017-12-04T04:02:50.573Z,1.90
2017-12-04T04:05:18.032Z,1.90
2017-12-04T04:07:45.443Z,1.90
2017-12-04T04:10:13.639Z,1.90
2017-12-04T04:12:41.085Z,1.90
2017-12-04T04:15:09.336Z,2.00
2017-12-04T04:17:36.778Z,1.90
2017-12-04T04:20:04.213Z,2.00
2017-12-04T04:22:31.664Z,2.00
2017-12-04T04:24:59.170Z,2.00
2017-12-04T04:27:26.620Z,2.00
2017-12-04T04:29:54.053Z,2.00
2017-12-04T04:32:23.498Z,2.00
2017-12-04T04:34:51.715Z,2.10
2017-12-04T04:37:19.153Z,2.00
2017-12-04T04:39:46.616Z,2.00
2017-12-04T04:42:14.045Z,2.10
2017-12-04T04:44:42.239Z,2.10
2017-12-04T04:47:09.696Z,2.10
2017-12-04T04:49:37.894Z,2.10
2017-12-04T04:52:07.362Z,2.10
2017-12-04T04:54:35.574Z,2.00
2017-12-04T04:57:02.995Z,1.90
2017-12-04T04:59:30.444Z,1.90
2017-12-04T05:01:58.649Z,1.90
2017-12-04T05:04:26.088Z,1.90
2017-12-04T05:06:54.282Z,1.90
2017-12-04T05:09:21.724Z,1.90
2017-12-04T05:11:49.153Z,2.00
2017-12-04T05:14:16.596Z,2.10
2017-12-04T05:16:44.044Z,2.20
2017-12-04T05:19:11.484Z,2.20
2017-12-04T05:21:38.915Z,2.20
2017-12-04T05:24:06.351Z,2.20
2017-12-04T05:26:34.552Z,2.20
2017-12-04T05:29:02.013Z,2.20
2017-12-04T05:31:29.444Z,2.20
2017-12-04T05:33:57.640Z,2.30
2017-12-04T05:36:25.076Z,2.20
2017-12-04T05:38:53.447Z,2.30
2017-12-04T05:41:21.680Z,2.40
2017-12-04T05:43:49.103Z,2.40
2017-12-04T05:46:16.540Z,2.40
2017-12-04T05:48:44.740Z,2.50
2017-12-04T05:51:12.183Z,2.40
2017-12-04T05:53:40.389Z,2.50
2017-12-04T05:56:07.828Z,2.50
2017-12-04T05:58:35.364Z,2.50
2017-12-04T06:01:02.796Z,2.50
2017-12-04T06:03:30.227Z,2.50
2017-12-04T06:05:57.688Z,2.50
2017-12-04T06:08:25.900Z,2.60
2017-12-04T06:10:54.106Z,2.60
2017-12-04T06:13:21.530Z,2.50
2017-12-04T06:15:48.959Z,2.60
2017-12-04T06:18:16.403Z,2.60
2017-12-04T06:20:43.853Z,2.60
2017-12-04T06:23:11.305Z,2.50
2017-12-04T06:25:38.719Z,2.50
2017-12-04T06:28:06.923Z,2.50
2017-12-04T06:30:34.352Z,2.50
2017-12-04T06:33:02.573Z,2.50
2017-12-04T06:35:31.919Z,2.40
2017-12-04T06:37:59.357Z,2.40
2017-12-04T06:40:26.801Z,2.40
2017-12-04T06:42:54.244Z,2.30
2017-12-04T06:45:21.680Z,2.30
2017-12-04T06:47:49.125Z,2.20
2017-12-04T06:50:18.404Z,2.30
2017-12-04T06:52:45.846Z,2.20
2017-12-04T06:55:13.289Z,2.20
2017-12-04T06:57:40.728Z,2.20
2017-12-04T07:00:08.164Z,2.10
2017-12-04T07:02:35.601Z,2.10
2017-12-04T07:05:03.805Z,2.10
2017-12-04T07:07:31.256Z,2.00
2017-12-04T07:10:06.125Z,2.10
2017-12-04T07:12:33.580Z,2.10
2017-12-04T07:15:01.036Z,2.10
2017-12-04T07:17:29.236Z,2.10
2017-12-04T07:19:56.667Z,2.10
2017-12-04T07:22:24.116Z,2.20
2017-12-04T07:24:51.556Z,2.10
2017-12-04T07:27:18.992Z,2.20
2017-12-04T07:29:47.270Z,2.30
2017-12-04T07:32:15.483Z,2.30
2017-12-04T07:34:42.934Z,2.30
2017-12-04T07:37:10.359Z,2.30
2017-12-04T07:39:38.573Z,2.40
2017-12-04T07:42:05.990Z,2.40
2017-12-04T07:44:34.200Z,2.30
2017-12-04T07:47:01.944Z,2.30
2017-12-04T07:49:29.380Z,2.30
2017-12-04T07:51:57.580Z,2.30
2017-12-04T07:54:25.016Z,2.30
2017-12-04T07:56:53.224Z,2.30
2017-12-04T07:59:20.660Z,2.20
2017-12-04T08:01:51.471Z,2.30
2017-12-04T08:04:19.688Z,2.30
2017-12-04T08:06:47.133Z,2.20
2017-12-04T08:09:14.567Z,2.30
2017-12-04T08:11:42.760Z,2.40
2017-12-04T08:14:10.221Z,2.40
2017-12-04T08:16:37.647Z,2.40
2017-12-04T08:19:05.847Z,2.40
2017-12-04T08:21:33.294Z,2.30
2017-12-04T08:24:01.547Z,2.50
2017-12-04T08:26:28.985Z,2.40
2017-12-04T08:28:56.424Z,2.50
2017-12-04T08:31:23.856Z,2.50
2017-12-04T08:33:51.299Z,2.50
2017-12-04T08:36:18.736Z,2.50
2017-12-04T08:38:46.939Z,2.60
2017-12-04T08:41:14.371Z,2.60
2017-12-04T08:43:42.573Z,2.60
2017-12-04T08:46:13.380Z,2.60
2017-12-04T08:48:41.586Z,2.70
2017-12-04T08:51:09.032Z,2.70
2017-12-04T08:53:36.465Z,2.70
2017-12-04T08:56:03.912Z,2.80
2017-12-04T08:58:31.339Z,2.80
2017-12-04T09:00:58.795Z,2.80
2017-12-04T09:03:26.307Z,2.80
2017-12-04T09:05:54.505Z,2.80
2017-12-04T09:08:21.935Z,2.80
2017-12-04T09:10:50.137Z,2.70
2017-12-04T09:13:24.909Z,2.70
2017-12-04T09:15:52.352Z,2.70
2017-12-04T09:18:19.794Z,2.80
2017-12-04T09:20:47.234Z,2.80
2017-12-04T09:23:14.663Z,2.80
2017-12-04T09:25:42.869Z,2.90
2017-12-04T09:28:11.330Z,2.80
2017-12-04T09:30:39.541Z,2.90
2017-12-04T09:33:07.011Z,2.80
2017-12-04T09:35:34.428Z,2.90
2017-12-04T09:38:02.638Z,2.90
2017-12-04T09:40:30.069Z,2.90
2017-12-04T09:42:57.500Z,2.90
2017-12-04T09:45:35.559Z,2.90
2017-12-04T09:48:04.999Z,2.90
2017-12-04T09:50:33.488Z,3.00
2017-12-04T09:53:01.797Z,3.00
2017-12-04T09:55:30.348Z,3.00
2017-12-04T09:57:58.822Z,3.10
2017-12-04T10:00:26.260Z,3.10
2017-12-04T10:02:53.700Z,3.10
2017-12-04T10:05:21.200Z,3.00
2017-12-04T10:07:49.401Z,3.00
2017-12-04T10:10:16.844Z,3.00
2017-12-04T10:12:45.035Z,3.10
2017-12-04T10:15:12.473Z,3.00
2017-12-04T10:17:40.679Z,3.10
2017-12-04T10:20:08.112Z,3.10
2017-12-04T10:22:35.536Z,3.10
2017-12-04T10:25:02.979Z,3.20
2017-12-04T10:27:30.415Z,3.20
2017-12-04T10:29:57.856Z,3.20
2017-12-04T10:32:25.293Z,3.20
2017-12-04T10:34:53.477Z,3.40
2017-12-04T10:37:20.936Z,3.30
2017-12-04T10:39:48.362Z,3.40
2017-12-04T10:42:15.800Z,3.40
2017-12-04T10:44:43.232Z,3.50
2017-12-04T10:47:10.672Z,3.40
2017-12-04T10:49:38.105Z,3.50
2017-12-04T10:52:06.322Z,3.40
2017-12-04T10:54:33.723Z,3.40
2017-12-04T10:57:01.159Z,3.40
2017-12-04T10:59:28.597Z,3.40
2017-12-04T11:01:56.033Z,3.50
2017-12-04T11:04:23.456Z,3.50
2017-12-04T11:06:51.683Z,3.50
2017-12-04T11:09:19.120Z,3.50
2017-12-04T11:11:46.550Z,3.60
2017-12-04T11:14:14.749Z,3.40
2017-12-04T11:16:42.177Z,3.40
2017-12-04T11:19:10.375Z,3.40
2017-12-04T11:21:37.808Z,3.40
2017-12-04T11:24:06.013Z,3.30
2017-12-04T11:26:33.431Z,3.30
2017-12-04T11:29:00.873Z,3.30
2017-12-04T11:31:28.348Z,3.20
2017-12-04T11:33:55.775Z,3.20
2017-12-04T11:36:24.720Z,3.10
2017-12-04T11:38:52.164Z,3.10
2017-12-04T11:41:20.579Z,3.10
2017-12-04T11:43:48.035Z,3.10
2017-12-04T11:46:15.464Z,3.10
2017-12-04T11:48:43.740Z,3.10
2017-12-04T11:51:11.937Z,3.00
2017-12-04T11:53:39.361Z,3.00
2017-12-04T11:56:07.570Z,3.00
2017-12-04T11:58:35.006Z,3.00
2017-12-04T12:01:03.223Z,3.00
2017-12-04T12:03:30.692Z,3.00
2017-12-04T12:05:58.153Z,3.00
2017-12-04T12:08:25.622Z,3.00
2017-12-04T12:10:53.055Z,3.10
2017-12-04T12:13:20.488Z,3.10
2017-12-04T12:15:47.924Z,3.20
2017-12-04T12:18:16.130Z,3.20
2017-12-04T12:20:43.568Z,3.20
2017-12-04T12:23:11.011Z,3.30
2017-12-04T12:25:39.228Z,3.30
2017-12-04T12:28:06.657Z,3.30
2017-12-04T12:30:35.111Z,3.30
2017-12-04T12:33:08.267Z,3.40
2017-12-04T12:35:35.694Z,3.30
2017-12-04T12:38:03.137Z,3.40
2017-12-04T12:40:31.337Z,3.50
2017-12-04T12:42:58.782Z,3.50
2017-12-04T12:45:26.212Z,3.50
2017-12-04T12:47:54.412Z,3.50
2017-12-04T12:50:21.845Z,3.50
2017-12-04T12:52:50.043Z,3.50
2017-12-04T12:55:17.467Z,3.50
2017-12-04T12:57:45.678Z,3.50
2017-12-04T13:00:13.104Z,3.50
2017-12-04T13:02:51.119Z,3.60
2017-12-04T13:05:18.557Z,3.60
2017-12-04T13:07:46.007Z,3.70
2017-12-04T13:10:13.436Z,3.80
2017-12-04T13:12:40.859Z,3.80
2017-12-04T13:15:08.324Z,3.90
2017-12-04T13:17:35.751Z,3.90
2017-12-04T13:20:03.952Z,4.00
2017-12-04T13:22:31.380Z,4.00
2017-12-04T13:24:59.579Z,4.10
2017-12-04T13:27:27.009Z,4.00
2017-12-04T13:29:55.217Z,4.20
2017-12-04T13:32:34.689Z,4.20
2017-12-04T13:35:16.199Z,4.20
2017-12-04T13:37:43.632Z,4.20
2017-12-04T13:40:11.133Z,4.20
2017-12-04T13:42:38.533Z,4.30
2017-12-04T13:45:05.976Z,4.30
2017-12-04T13:47:33.415Z,4.30
2017-12-04T13:50:01.640Z,4.30
2017-12-04T13:52:29.079Z,4.30
2017-12-04T13:54:56.566Z,4.40
2017-12-04T13:57:24.004Z,4.30
2017-12-04T13:59:51.433Z,4.30
2017-12-04T14:02:18.851Z,4.30
2017-12-04T14:04:46.288Z,4.40
2017-12-04T14:07:13.716Z,4.40
2017-12-04T14:09:41.165Z,4.40
2017-12-04T14:12:08.580Z,4.40
2017-12-04T14:14:36.004Z,4.50
2017-12-04T14:17:03.436Z,4.50
2017-12-04T14:19:30.863Z,4.50
2017-12-04T14:21:59.057Z,4.60
2017-12-04T14:24:26.488Z,4.60
2017-12-04T14:26:54.686Z,4.60
2017-12-04T14:29:22.111Z,4.60
2017-12-04T14:31:49.551Z,4.60
2017-12-04T14:34:16.989Z,4.60
2017-12-04T14:36:44.430Z,4.70
2017-12-04T14:39:11.872Z,4.60
2017-12-04T14:41:45.612Z,4.60
2017-12-04T14:44:13.052Z,4.60
2017-12-04T14:46:40.483Z,4.70
2017-12-04T14:49:08.681Z,4.70
2017-12-04T14:51:36.107Z,4.70
2017-12-04T14:54:04.312Z,4.70
2017-12-04T14:56:31.727Z,4.70
2017-12-04T14:58:59.920Z,4.70
2017-12-04T15:01:27.339Z,4.70
2017-12-04T15:03:54.826Z,4.80
2017-12-04T15:06:23.011Z,4.70
2017-12-04T15:08:50.436Z,4.70
2017-12-04T15:11:18.313Z,4.70
2017-12-04T15:13:45.736Z,4.70
2017-12-04T15:16:13.175Z,4.70
2017-12-04T15:18:44.976Z,4.70
2017-12-04T15:21:12.508Z,4.70
2017-12-04T15:23:39.920Z,4.80
2017-12-04T15:26:07.403Z,4.80
2017-12-04T15:28:34.888Z,4.70
2017-12-04T15:31:02.359Z,4.80
2017-12-04T15:33:29.783Z,4.70
2017-12-04T15:39:07.475Z,4.70
2017-12-04T15:47:23.883Z,4.80
2017-12-04T15:49:52.080Z,4.80
2017-12-04T15:52:20.278Z,4.80
2017-12-04T15:54:47.707Z,4.80
2017-12-04T15:57:16.006Z,4.90
2017-12-04T15:59:43.432Z,4.90
2017-12-04T16:02:11.629Z,4.90
2017-12-04T16:04:39.052Z,4.90
2017-12-04T16:07:06.542Z,5.00
2017-12-04T16:09:33.960Z,4.90
2017-12-04T16:12:01.412Z,4.90
2017-12-04T16:14:29.042Z,4.90
2017-12-04T16:16:56.460Z,4.90
2017-12-04T16:19:23.905Z,4.90
2017-12-04T16:21:52.100Z,4.90
2017-12-04T16:24:19.595Z,4.90
2017-12-04T16:26:47.011Z,4.90
2017-12-04T16:29:14.440Z,4.90
2017-12-04T16:31:41.869Z,4.80
2017-12-04T16:34:09.328Z,4.80
2017-12-04T16:36:42.252Z,4.80
2017-12-04T16:39:16.747Z,4.60
2017-12-04T16:41:44.174Z,4.60
2017-12-04T16:44:11.668Z,4.50
2017-12-04T16:46:39.047Z,4.40
2017-12-04T16:49:06.463Z,4.30
2017-12-04T16:51:33.894Z,4.40
2017-12-04T16:54:01.345Z,4.30
2017-12-04T16:56:39.320Z,4.30
2017-12-04T16:59:06.739Z,4.30
2017-12-04T17:01:40.509Z,4.30
2017-12-04T17:04:17.226Z,4.20
2017-12-04T17:06:44.655Z,4.20
2017-12-04T17:09:12.091Z,4.20
2017-12-04T17:11:39.520Z,4.20
2017-12-04T17:14:07.724Z,4.20
2017-12-04T17:16:39.146Z,4.10
2017-12-04T17:19:07.345Z,4.20
2017-12-04T17:21:34.784Z,4.20
2017-12-04T17:24:03.087Z,4.30
2017-12-04T17:26:30.527Z,4.20
2017-12-04T17:28:58.726Z,4.20
2017-12-04T17:31:26.162Z,4.10
2017-12-04T17:33:53.591Z,4.20
2017-12-04T17:36:21.028Z,4.20
2017-12-04T17:38:48.454Z,4.20
2017-12-04T17:41:15.887Z,4.20
2017-12-04T17:43:43.329Z,4.20
2017-12-04T17:46:11.543Z,4.40
2017-12-04T17:48:38.977Z,4.30
2017-12-04T17:51:06.416Z,4.40
2017-12-04T17:53:34.612Z,4.50
2017-12-04T17:56:02.061Z,4.50
2017-12-04T17:58:29.492Z,4.50
2017-12-04T18:00:56.961Z,4.60
2017-12-04T18:03:25.151Z,4.70
2017-12-04T18:05:52.604Z,4.60
2017-12-04T18:08:20.802Z,4.60
2017-12-04T18:10:48.233Z,4.60
2017-12-04T18:13:16.442Z,4.70
2017-12-04T18:16:03.772Z,4.70
2017-12-04T18:18:34.561Z,4.70
2017-12-04T18:21:02.804Z,4.70
2017-12-04T18:23:30.252Z,4.70
2017-12-04T18:25:57.694Z,4.70
2017-12-04T18:28:25.156Z,4.60
2017-12-04T18:30:52.568Z,4.70
2017-12-04T18:33:20.013Z,4.70
2017-12-04T18:35:47.436Z,4.70
2017-12-04T18:38:14.909Z,4.60
2017-12-04T18:40:42.345Z,4.70
2017-12-04T18:43:09.804Z,4.70
2017-12-04T18:45:37.256Z,4.70
2017-12-04T18:48:04.712Z,4.70
2017-12-04T18:50:39.763Z,4.70
2017-12-04T18:53:07.253Z,4.70
2017-12-04T18:55:34.691Z,4.70
2017-12-04T18:58:02.114Z,4.70
2017-12-04T19:00:29.560Z,4.70
2017-12-04T19:03:00.665Z,4.60
2017-12-04T19:05:28.890Z,4.70
2017-12-04T19:07:56.328Z,4.70
2017-12-04T19:10:24.591Z,4.70
2017-12-04T19:12:52.780Z,4.70
2017-12-04T19:15:20.236Z,4.70
2017-12-04T19:17:47.661Z,4.70
2017-12-04T19:20:15.104Z,4.60
2017-12-04T19:22:42.609Z,4.70
2017-12-04T19:25:10.041Z,4.70
2017-12-04T19:27:41.489Z,4.70
2017-12-04T19:30:08.922Z,4.70
2017-12-04T19:32:36.353Z,4.70
2017-12-04T19:35:03.812Z,4.70
2017-12-04T19:37:34.498Z,4.70
2017-12-04T19:40:02.713Z,4.60
2017-12-04T19:42:30.173Z,4.60
2017-12-04T19:44:57.615Z,4.70
2017-12-04T19:47:25.065Z,4.70
2017-12-04T19:49:52.498Z,4.70
2017-12-04T19:52:20.980Z,4.70
2017-12-04T19:54:49.182Z,4.70
2017-12-04T19:57:16.611Z,4.70
2017-12-04T19:59:44.804Z,4.70
2017-12-04T20:02:12.249Z,4.70
2017-12-04T20:04:44.770Z,4.70
2017-12-04T20:07:12.204Z,4.70
2017-12-04T20:09:39.641Z,4.70
2017-12-04T20:12:07.909Z,4.60
2017-12-04T20:14:35.353Z,4.60
2017-12-04T20:17:02.791Z,4.60
2017-12-04T20:19:30.224Z,4.70
2017-12-04T20:21:58.664Z,4.70
2017-12-04T20:24:27.963Z,4.70
2017-12-04T20:26:55.391Z,4.70
2017-12-04T20:29:22.846Z,4.70
2017-12-04T20:32:03.559Z,4.80
2017-12-04T20:34:31.027Z,4.70
2017-12-04T20:36:58.462Z,4.70
2017-12-04T20:39:26.656Z,4.70
2017-12-04T20:41:56.132Z,4.70
2017-12-04T20:44:23.568Z,4.70
2017-12-04T20:46:58.520Z,4.70
2017-12-04T20:49:32.293Z,4.70
2017-12-04T20:52:04.184Z,4.70
2017-12-04T20:54:45.428Z,4.80
2017-12-04T20:57:16.823Z,4.80
2017-12-04T20:59:45.097Z,4.80
2017-12-04T21:02:13.306Z,4.80
2017-12-04T21:04:40.740Z,4.70
2017-12-04T21:07:08.949Z,4.80
2017-12-04T21:09:48.265Z,4.80
2017-12-04T21:12:15.742Z,4.90
2017-12-04T21:14:55.155Z,4.80
2017-12-04T21:17:34.399Z,4.80
2017-12-04T21:20:03.706Z,4.80
2017-12-04T21:22:35.429Z,4.90
2017-12-04T21:25:03.947Z,4.90
2017-12-04T21:27:31.404Z,4.80
2017-12-04T21:29:58.885Z,4.80
2017-12-04T21:32:26.326Z,4.80
2017-12-04T21:34:53.781Z,4.90
2017-12-04T21:37:44.860Z,4.90
2017-12-04T21:40:13.072Z,4.90
2017-12-04T21:42:40.512Z,4.80
2017-12-04T21:45:07.983Z,4.90
2017-12-04T21:47:48.312Z,4.90
2017-12-04T21:50:16.519Z,4.80
2017-12-04T21:52:43.972Z,4.80
2017-12-04T21:55:11.438Z,4.90
2017-12-04T21:57:38.860Z,5.00
2017-12-04T22:00:06.309Z,5.00
2017-12-04T22:02:37.968Z,5.00
2017-12-04T22:05:06.189Z,5.00
2017-12-04T22:07:33.624Z,5.00
2017-12-04T22:10:01.068Z,5.00
2017-12-04T22:12:28.564Z,5.00
2017-12-04T22:14:56.032Z,5.10
2017-12-04T22:17:24.236Z,5.10
2017-12-04T22:19:51.656Z,5.10
2017-12-04T22:22:19.113Z,5.10
2017-12-04T22:24:46.640Z,5.20
2017-12-04T22:27:14.080Z,5.10
2017-12-04T22:29:42.324Z,5.00
2017-12-04T22:32:09.765Z,5.00
2017-12-04T22:34:37.210Z,5.00
2017-12-04T22:37:04.673Z,5.00
2017-12-04T22:39:32.128Z,5.00
2017-12-04T22:41:59.574Z,5.00
2017-12-04T22:44:27.026Z,5.00
2017-12-04T22:46:54.479Z,5.00
2017-12-04T22:49:21.928Z,5.00
2017-12-04T22:51:49.364Z,5.00
2017-12-04T22:54:17.618Z,5.00
2017-12-04T22:56:45.057Z,5.00
2017-12-04T22:59:12.524Z,5.00
2017-12-04T23:02:00.772Z,5.10
2017-12-04T23:04:28.202Z,5.10
2017-12-04T23:06:55.660Z,5.00
2017-12-04T23:09:23.108Z,5.00
2017-12-04T23:11:50.553Z,5.00
2017-12-04T23:14:18.949Z,5.00
2017-12-04T23:16:46.411Z,5.00
2017-12-04T23:19:13.863Z,5.10
2017-12-04T23:21:42.108Z,5.20
2017-12-04T23:24:10.317Z,5.30
2017-12-04T23:26:37.755Z,5.20
2017-12-04T23:29:11.219Z,5.30
2017-12-04T23:31:39.432Z,5.30
2017-12-04T23:34:06.906Z,5.30
2017-12-04T23:36:34.347Z,5.20
2017-12-04T23:39:01.821Z,5.20
2017-12-04T23:41:29.270Z,5.20
2017-12-04T23:43:56.741Z,5.10
2017-12-04T23:46:24.204Z,5.20
2017-12-04T23:48:51.669Z,5.10
2017-12-04T23:51:19.148Z,5.20
2017-12-04T23:53:46.587Z,5.20
2017-12-04T23:56:14.059Z,5.20
2017-12-04T23:58:41.504Z,5.20
